Time;durP1;ratioP1;P1;durP2;ratioP2;P2;SDS_P1;SDS_P2;PMS_P1;PMS_P2;Temp;Humidity;BMP_temperature;BMP_pressure;BME280_temperature;BME280_humidity;BME280_pressure;Samples;Min_cycle;Max_cycle;Signal;HPM_P1;HPM_P2
2022/01/29 00:00:27;;;;;;;16.38;6.63;;;128.90;2252.80;;;;;;4908408;29;19915;-82
2022/01/29 00:02:53;;;;;;;;;;;153.60;2252.80;;;;;;4891350;29;20067;-84
2022/01/29 00:05:19;;;;;;;16.42;3.80;;;128.90;2252.80;;;;;;4895638;29;19919;-76
2022/01/29 00:07:45;;;;;;;;;;;128.80;2252.80;;;;;;4910951;29;20152;-77
2022/01/29 00:10:11;;;;;;;13.38;4.97;;;128.70;2252.80;;;;;;4906642;29;19956;-84
2022/01/29 00:12:37;;;;;;;17.70;6.63;;;128.70;2252.80;;;;;;4909902;29;20089;-74
2022/01/29 00:15:03;;;;;;;;;;;128.80;2252.80;;;;;;4907585;29;20020;-84
2022/01/29 00:17:29;;;;;;;17.00;5.97;;;128.60;2252.80;;;;;;4908810;29;19907;-76
2022/01/29 00:19:55;;;;;;;14.07;5.15;;;128.70;2252.80;;;;;;4906687;29;20028;-78
2022/01/29 00:22:21;;;;;;;12.95;5.20;;;128.60;2252.80;;;;;;4906677;29;20469;-75
2022/01/29 00:24:46;;;;;;;;;;;128.60;2252.80;;;;;;4907364;29;20065;-83
2022/01/29 00:27:12;;;;;;;16.70;6.05;;;128.70;2252.80;;;;;;4892534;29;19907;-84
2022/01/29 00:29:39;;;;;;;;;;;128.50;2252.80;;;;;;4917014;29;20083;-83
2022/01/29 00:32:06;;;;;;;10.27;3.63;;;128.70;2252.80;;;;;;4908219;29;19914;-84
2022/01/29 00:34:32;;;;;;;13.30;5.50;;;128.60;2252.80;;;;;;4906600;29;20036;-84
2022/01/29 00:36:58;;;;;;;16.08;5.90;;;128.60;2252.80;;;;;;4889981;29;20029;-84
2022/01/29 00:39:24;;;;;;;;;;;128.60;2252.80;;;;;;4891206;29;20112;-75
2022/01/29 00:41:50;;;;;;;15.52;6.18;;;128.60;2252.80;;;;;;4889403;29;19997;-77
2022/01/29 00:44:16;;;;;;;11.48;4.78;;;128.50;2252.80;;;;;;4905628;29;20103;-78
2022/01/29 00:46:41;;;;;;;;;;;128.50;2252.80;;;;;;4909058;29;20031;-78
2022/01/29 00:49:11;;;;;;;16.40;6.43;;;128.50;2252.80;;;;;;4907782;29;20453;-75
2022/01/29 00:51:37;;;;;;;18.13;5.75;;;128.50;2252.80;;;;;;4891896;29;20029;-75
2022/01/29 00:54:03;;;;;;;;;;;128.40;2252.80;;;;;;4889390;29;20040;-84
2022/01/29 00:56:29;;;;;;;11.20;6.18;;;128.60;2252.80;;;;;;4891799;29;19907;-85
2022/01/29 00:58:54;;;;;;;;;;;128.60;2252.80;;;;;;4908755;29;20027;-84
2022/01/29 01:01:21;;;;;;;18.00;5.30;;;128.70;2252.80;;;;;;4904855;29;19915;-81
2022/01/29 01:03:46;;;;;;;;;;;128.60;2252.80;;;;;;4907114;29;20047;-75
2022/01/29 01:06:12;;;;;;;15.30;5.03;;;128.50;2252.80;;;;;;4905537;29;19907;-75
2022/01/29 01:08:38;;;;;;;;;;;128.40;2252.80;;;;;;4908763;29;20076;-84
2022/01/29 01:11:04;;;;;;;14.18;4.43;;;128.50;2252.80;;;;;;4908741;29;19916;-75
2022/01/29 01:13:33;;;;;;;;;;;128.50;2252.80;;;;;;4906588;29;20024;-76
2022/01/29 01:15:59;;;;;;;14.93;6.38;;;128.50;2252.80;;;;;;4894474;29;20261;-83
2022/01/29 01:18:25;;;;;;;15.98;4.68;;;128.40;2252.80;;;;;;4916385;29;20485;-76
2022/01/29 01:20:51;;;;;;;13.63;4.75;;;128.30;2252.80;;;;;;4911289;29;20076;-84
2022/01/29 01:23:17;;;;;;;;;;;128.40;2252.80;;;;;;4906242;29;20031;-83
2022/01/29 01:25:42;;;;;;;16.20;5.70;;;128.20;2252.80;;;;;;4907675;29;20018;-85
2022/01/29 01:28:08;;;;;;;;;;;128.20;2252.80;;;;;;4910230;29;20389;-77
2022/01/29 01:30:35;;;;;;;17.98;6.32;;;128.20;2252.80;;;;;;4908103;29;19970;-79
2022/01/29 01:33:02;;;;;;;18.17;5.28;;;128.20;2252.80;;;;;;4905279;29;20103;-75
2022/01/29 01:35:44;;;;;;;13.82;4.35;;;128.20;2252.80;;;;;;4907694;29;20062;-76
2022/01/29 01:38:20;;;;;;;12.40;5.03;;;128.20;2252.80;;;;;;4907724;29;20036;-76
2022/01/29 01:40:52;;;;;;;12.68;4.75;;;128.30;2252.80;;;;;;4909558;29;20031;-84
2022/01/29 01:43:18;;;;;;;18.13;6.35;;;128.30;2252.80;;;;;;4907670;29;20156;-77
2022/01/29 01:45:44;;;;;;;17.75;5.57;;;128.40;2252.80;;;;;;4907481;29;20528;-81
2022/01/29 01:48:10;;;;;;;14.65;4.80;;;128.40;2252.80;;;;;;4888363;29;20020;-83
2022/01/29 01:50:38;;;;;;;15.48;4.85;;;128.30;2252.80;;;;;;4907149;29;20048;-84
2022/01/29 01:53:05;;;;;;;19.65;4.97;;;128.30;2252.80;;;;;;4905867;29;20020;-80
2022/01/29 01:55:31;;;;;;;11.10;5.13;;;128.40;2252.80;;;;;;4899078;29;20465;-81
2022/01/29 01:57:58;;;;;;;16.95;5.75;;;128.40;2252.80;;;;;;4899272;29;20031;-85
2022/01/29 02:00:27;;;;;;;12.10;4.78;;;128.40;2252.80;;;;;;4898283;29;20092;-81
2022/01/29 02:02:54;;;;;;;20.35;6.35;;;128.20;2252.80;;;;;;4889278;29;20028;-81
2022/01/29 02:05:19;;;;;;;15.15;4.70;;;128.40;2252.80;;;;;;4907561;29;20119;-75
2022/01/29 02:07:46;;;;;;;14.00;5.32;;;128.40;2252.80;;;;;;4914678;29;20099;-74
2022/01/29 02:10:13;;;;;;;13.13;3.70;;;128.40;2252.80;;;;;;4888285;29;20073;-83
2022/01/29 02:12:48;;;;;;;11.77;3.90;;;128.20;2252.80;;;;;;4909527;29;20016;-76
2022/01/29 02:15:15;;;;;;;11.65;4.18;;;128.20;2252.80;;;;;;4913577;29;20036;-83
2022/01/29 02:17:41;;;;;;;19.65;5.35;;;128.20;2252.80;;;;;;4910009;29;20049;-75
2022/01/29 02:20:07;;;;;;;12.80;4.28;;;128.20;2252.80;;;;;;4908541;29;20374;-84
2022/01/29 02:22:33;;;;;;;15.00;5.10;;;128.20;2252.80;;;;;;4910382;29;20033;-75
2022/01/29 02:24:59;;;;;;;12.00;4.10;;;128.20;2252.80;;;;;;4891726;29;20055;-75
2022/01/29 02:27:24;;;;;;;;;;;128.30;2252.80;;;;;;4910213;29;20055;-75
2022/01/29 02:29:50;;;;;;;8.15;3.33;;;128.20;2252.80;;;;;;4891092;29;20360;-84
2022/01/29 02:32:16;;;;;;;;;;;128.20;2252.80;;;;;;4909152;29;20073;-82
2022/01/29 02:34:44;;;;;;;11.80;3.95;;;128.20;2252.80;;;;;;4909620;29;19907;-85
2022/01/29 02:37:09;;;;;;;7.90;3.55;;;128.20;2252.80;;;;;;4909693;29;20080;-84
2022/01/29 02:39:35;;;;;;;7.68;4.00;;;128.40;2252.80;;;;;;4891436;29;20052;-75
2022/01/29 02:42:01;;;;;;;11.55;4.25;;;128.40;2252.80;;;;;;4913829;29;20024;-75
2022/01/29 02:44:27;;;;;;;7.10;3.60;;;128.50;2252.80;;;;;;4918855;29;20032;-76
2022/01/29 02:46:56;;;;;;;11.32;3.55;;;128.40;2252.80;;;;;;4914358;29;20095;-76
2022/01/29 02:49:24;;;;;;;11.80;4.20;;;128.30;2252.80;;;;;;4910072;29;20031;-76
2022/01/29 02:51:55;;;;;;;8.68;3.97;;;128.00;2252.80;;;;;;4907587;29;20103;-82
2022/01/29 02:54:22;;;;;;;15.88;4.30;;;128.10;2252.80;;;;;;4891351;29;20021;-82
2022/01/29 02:56:48;;;;;;;11.48;3.78;;;103.30;2227.20;;;;;;4909596;29;20087;-84
2022/01/29 02:59:14;;;;;;;13.82;4.00;;;128.00;2252.80;;;;;;4907372;29;20145;-79
2022/01/29 03:01:41;;;;;;;8.48;3.67;;;103.30;2227.20;;;;;;4891437;29;20104;-84
2022/01/29 03:04:07;;;;;;;9.35;3.63;;;128.10;2252.80;;;;;;4908697;29;20569;-84
2022/01/29 03:06:33;;;;;;;14.02;4.88;;;128.20;2252.80;;;;;;4908786;29;20115;-76
2022/01/29 03:08:59;;;;;;;;;;;128.00;2252.80;;;;;;4910538;29;20032;-84
2022/01/29 03:11:25;;;;;;;14.35;4.55;;;103.30;2227.20;;;;;;4892085;29;19919;-81
2022/01/29 03:13:50;;;;;;;;;;;128.10;2252.80;;;;;;4893014;29;20025;-82
2022/01/29 03:16:17;;;;;;;22.27;5.72;;;103.20;2227.20;;;;;;4893171;29;20287;-75
2022/01/29 03:18:44;;;;;;;12.05;3.40;;;103.30;2227.20;;;;;;4910459;29;20021;-84
2022/01/29 03:21:09;;;;;;;13.15;3.35;;;128.10;2252.80;;;;;;4906714;29;20021;-83
2022/01/29 03:23:35;;;;;;;18.33;4.43;;;103.20;2227.20;;;;;;4908056;29;20035;-75
2022/01/29 03:26:01;;;;;;;;;;;103.10;2227.20;;;;;;4908342;29;20496;-84
2022/01/29 03:28:27;;;;;;;16.55;4.32;;;103.10;2227.20;;;;;;4896359;29;20046;-83
2022/01/29 03:30:55;;;;;;;11.50;5.03;;;103.30;2227.20;;;;;;4915705;29;20024;-83
2022/01/29 03:33:21;;;;;;;12.50;4.80;;;103.20;2227.20;;;;;;4910508;29;20381;-76
2022/01/29 03:35:47;;;;;;;10.98;3.83;;;102.90;2227.20;;;;;;4908188;29;20024;-80
2022/01/29 03:38:13;;;;;;;15.77;4.57;;;102.80;2227.20;;;;;;4908163;29;20040;-84
2022/01/29 03:40:40;;;;;;;13.35;4.38;;;103.00;2227.20;;;;;;4890527;29;20128;-84
2022/01/29 03:43:14;;;;;;;13.77;5.28;;;102.70;2227.20;;;;;;4896314;29;20032;-75
2022/01/29 03:45:40;;;;;;;11.27;4.32;;;102.70;2227.20;;;;;;4907385;29;20040;-84
2022/01/29 03:48:09;;;;;;;;;;;103.20;2227.20;;;;;;4914209;29;20114;-81
2022/01/29 03:50:36;;;;;;;15.18;4.57;;;102.90;2227.20;;;;;;4891664;29;19916;-82
2022/01/29 03:53:02;;;;;;;19.55;5.15;;;103.00;2227.20;;;;;;4907290;29;20413;-83
2022/01/29 03:55:28;;;;;;;;;;;103.00;2227.20;;;;;;4893248;29;20036;-84
2022/01/29 03:57:53;;;;;;;11.07;4.13;;;103.00;2227.20;;;;;;4890220;29;20006;-85
2022/01/29 04:00:20;;;;;;;;;;;103.10;2227.20;;;;;;4909360;29;20041;-86
2022/01/29 04:02:46;;;;;;;15.38;5.10;;;102.80;2227.20;;;;;;4909468;29;19955;-84
2022/01/29 04:05:12;;;;;;;;;;;102.80;2227.20;;;;;;4905520;29;20036;-75
2022/01/29 04:07:40;;;;;;;16.95;4.40;;;102.80;2227.20;;;;;;4890345;29;19907;-84
2022/01/29 04:10:06;;;;;;;15.80;5.28;;;102.80;2227.20;;;;;;4893091;29;20477;-84
2022/01/29 04:12:38;;;;;;;15.27;4.95;;;102.90;2227.20;;;;;;4909541;29;20507;-80
2022/01/29 04:15:04;;;;;;;13.25;4.75;;;102.80;2227.20;;;;;;4912175;29;20092;-81
2022/01/29 04:17:29;;;;;;;;;;;102.70;2227.20;;;;;;4893747;29;20136;-81
2022/01/29 04:19:55;;;;;;;18.65;5.25;;;102.50;2227.20;;;;;;4907879;29;20001;-84
2022/01/29 04:22:21;;;;;;;;;;;77.70;2227.20;;;;;;4908852;29;21502;-76
2022/01/29 04:24:46;;;;;;;12.43;4.50;;;77.70;2227.20;;;;;;4907009;29;20335;-85
2022/01/29 04:27:19;;;;;;;;;;;77.70;2227.20;;;;;;4909707;29;20028;-84
2022/01/29 04:29:57;;;;;;;15.02;5.43;;;77.60;2227.20;;;;;;4906606;29;19967;-85
2022/01/29 04:32:34;;;;;;;17.33;5.63;;;77.70;2227.20;;;;;;4906855;29;20184;-82
2022/01/29 04:35:00;;;;;;;19.23;5.43;;;77.70;2227.20;;;;;;4906256;29;20021;-84
2022/01/29 04:37:26;;;;;;;16.90;4.85;;;77.70;2227.20;;;;;;4910716;29;20036;-82
2022/01/29 04:39:52;;;;;;;12.60;4.47;;;102.40;2227.20;;;;;;4906496;29;20068;-85
2022/01/29 04:42:17;;;;;;;;;;;77.70;2227.20;;;;;;4910045;29;20099;-85
2022/01/29 04:44:43;;;;;;;11.43;4.57;;;77.70;2227.20;;;;;;4908287;29;20075;-77
2022/01/29 04:47:09;;;;;;;;;;;77.70;2227.20;;;;;;4891662;29;20031;-75
2022/01/29 04:49:34;;;;;;;8.90;4.13;;;102.40;2227.20;;;;;;4909917;29;19907;-75
2022/01/29 04:52:00;;;;;;;;;;;77.60;2227.20;;;;;;4895629;29;20027;-75
2022/01/29 04:54:26;;;;;;;12.75;3.88;;;77.70;2227.20;;;;;;4908623;29;19914;-85
2022/01/29 04:56:51;;;;;;;;;;;77.70;2227.20;;;;;;4907995;29;20025;-82
2022/01/29 04:59:17;;;;;;;8.30;3.38;;;77.70;2227.20;;;;;;4905923;29;19946;-76
2022/01/29 05:01:42;;;;;;;;;;;77.60;2227.20;;;;;;4908393;29;20025;-83
2022/01/29 05:04:08;;;;;;;8.48;3.42;;;77.60;2227.20;;;;;;4903511;29;19985;-77
2022/01/29 05:06:34;;;;;;;;;;;77.60;2227.20;;;;;;4907559;29;20075;-81
2022/01/29 05:08:59;;;;;;;11.07;3.30;;;77.60;2227.20;;;;;;4907011;29;20268;-82
2022/01/29 05:11:25;;;;;;;;;;;77.60;2227.20;;;;;;4906584;29;20028;-79
2022/01/29 05:13:51;;;;;;;11.50;4.28;;;77.70;2227.20;;;;;;4905787;29;20314;-79
2022/01/29 05:16:41;;;;;;;;;;;77.70;2227.20;;;;;;4914254;29;20024;-75
2022/01/29 05:27:19;;;;;;;18.95;5.45;;;77.70;2227.20;;;;;;4909768;29;20485;-76
2022/01/29 05:29:45;;;;;;;13.95;4.60;;;77.70;2227.20;;;;;;4905183;29;20041;-80
2022/01/29 05:32:12;;;;;;;;;;;102.50;2227.20;;;;;;4909139;29;20042;-82
2022/01/29 05:34:37;;;;;;;9.93;3.50;;;102.50;2227.20;;;;;;4913956;29;19963;-84
2022/01/29 05:37:04;;;;;;;5.80;2.80;;;102.40;2227.20;;;;;;4908402;29;20263;-80
2022/01/29 05:39:31;;;;;;;7.80;3.05;;;102.40;2227.20;;;;;;4905359;29;20462;-82
2022/01/29 05:41:58;;;;;;;10.77;2.88;;;102.40;2227.20;;;;;;4909484;29;20022;-84
2022/01/29 05:44:25;;;;;;;11.25;3.00;;;102.60;2227.20;;;;;;4902369;29;20096;-79
2022/01/29 05:46:51;;;;;;;6.45;2.33;;;102.40;2227.20;;;;;;4912269;29;20024;-84
2022/01/29 05:49:16;;;;;;;;;;;77.70;2227.20;;;;;;4916660;29;20021;-84
2022/01/29 05:51:42;;;;;;;5.38;2.63;;;77.70;2227.20;;;;;;4911431;29;19955;-75
2022/01/29 05:54:08;;;;;;;9.48;3.33;;;77.70;2227.20;;;;;;4908965;29;20016;-76
2022/01/29 05:56:34;;;;;;;;;;;77.70;2227.20;;;;;;4908954;29;20437;-84
2022/01/29 05:59:00;;;;;;;11.15;5.15;;;77.70;2227.20;;;;;;4897361;29;19911;-85
2022/01/29 06:01:26;;;;;;;5.75;2.63;;;77.70;2227.20;;;;;;4894612;29;20032;-81
2022/01/29 06:03:52;;;;;;;8.93;2.47;;;102.40;2227.20;;;;;;4909729;29;20039;-84
2022/01/29 06:06:17;;;;;;;;;;;77.70;2227.20;;;;;;4911322;29;20068;-85
2022/01/29 06:08:43;;;;;;;10.07;3.42;;;102.40;2227.20;;;;;;4909565;29;20360;-84
2022/01/29 06:11:09;;;;;;;13.52;3.97;;;102.50;2227.20;;;;;;4911164;29;20035;-84
2022/01/29 06:13:35;;;;;;;8.10;3.00;;;102.40;2227.20;;;;;;4891907;29;20016;-80
2022/01/29 06:16:02;;;;;;;14.15;4.28;;;102.40;2227.20;;;;;;4911446;29;20024;-85
2022/01/29 06:18:28;;;;;;;7.55;3.58;;;102.50;2227.20;;;;;;4909993;29;20040;-83
2022/01/29 06:20:57;;;;;;;15.40;7.07;;;102.40;2227.20;;;;;;4909273;29;20036;-83
2022/01/29 06:23:34;;;;;;;14.25;5.78;;;102.50;2227.20;;;;;;4909241;29;20452;-84
2022/01/29 06:26:03;;;;;;;22.73;7.43;;;102.70;2227.20;;;;;;4896766;29;20032;-75
2022/01/29 06:28:29;;;;;;;19.13;7.30;;;102.90;2227.20;;;;;;4894091;29;20496;-85
2022/01/29 06:30:55;;;;;;;;;;;103.30;2227.20;;;;;;4909480;29;20039;-84
2022/01/29 06:33:20;;;;;;;10.98;4.60;;;103.20;2227.20;;;;;;4909883;29;19907;-85
2022/01/29 06:35:46;;;;;;;;;;;103.20;2227.20;;;;;;4910710;29;20104;-86
2022/01/29 06:38:14;;;;;;;13.05;3.63;;;103.00;2227.20;;;;;;4891387;29;20002;-77
2022/01/29 06:40:41;;;;;;;9.82;4.00;;;103.10;2227.20;;;;;;4907976;29;20026;-83
2022/01/29 06:43:07;;;;;;;13.73;5.57;;;102.80;2227.20;;;;;;4893984;29;20050;-76
2022/01/29 06:45:34;;;;;;;15.88;5.45;;;103.10;2227.20;;;;;;4893676;29;20035;-80
2022/01/29 06:48:00;;;;;;;23.60;8.43;;;102.90;2227.20;;;;;;4904510;29;20027;-78
2022/01/29 06:50:26;;;;;;;23.08;9.57;;;102.70;2227.20;;;;;;4911080;29;20028;-80
2022/01/29 06:52:52;;;;;;;23.55;10.93;;;102.70;2227.20;;;;;;4910840;29;20048;-75
2022/01/29 06:55:18;;;;;;;;;;;102.60;2227.20;;;;;;4908626;29;20500;-77
2022/01/29 06:57:44;;;;;;;42.22;16.45;;;102.50;2227.20;;;;;;4906196;29;19916;-81
2022/01/29 07:00:10;;;;;;;;;;;102.50;2227.20;;;;;;4910928;29;20027;-81
2022/01/29 07:02:36;;;;;;;34.28;12.50;;;102.60;2227.20;;;;;;4893955;29;20257;-82
2022/01/29 07:05:04;;;;;;;26.33;11.13;;;102.70;2227.20;;;;;;4908457;29;20073;-80
2022/01/29 07:07:29;;;;;;;35.33;14.25;;;102.80;2227.20;;;;;;4888871;29;20040;-83
2022/01/29 07:09:55;;;;;;;30.42;13.48;;;102.80;2227.20;;;;;;4907424;29;20042;-78
2022/01/29 07:12:22;;;;;;;;;;;102.80;2227.20;;;;;;4910006;29;20028;-86
2022/01/29 07:14:49;;;;;;;33.72;17.63;;;102.70;2227.20;;;;;;4910925;29;19930;-84
2022/01/29 07:17:17;;;;;;;19.60;8.70;;;102.80;2227.20;;;;;;4908108;29;20107;-83
2022/01/29 07:19:44;;;;;;;22.85;8.73;;;102.80;2227.20;;;;;;4908915;29;20035;-76
2022/01/29 07:22:10;;;;;;;21.98;8.55;;;103.00;2227.20;;;;;;4894067;29;20100;-84
2022/01/29 07:24:37;;;;;;;18.52;8.50;;;103.20;2227.20;;;;;;4893511;29;20465;-82
2022/01/29 07:27:04;;;;;;;27.10;11.18;;;103.20;2227.20;;;;;;4915818;29;20020;-82
2022/01/29 07:29:30;;;;;;;31.85;14.50;;;103.20;2227.20;;;;;;4918318;29;20035;-82
2022/01/29 07:31:57;;;;;;;18.30;8.50;;;128.00;2252.80;;;;;;4898852;29;20031;-80
2022/01/29 07:34:26;;;;;;;14.07;8.13;;;103.30;2227.20;;;;;;4890955;29;20052;-76
2022/01/29 07:36:53;;;;;;;22.75;8.73;;;128.20;2252.80;;;;;;4908574;29;20028;-86
2022/01/29 07:39:20;;;;;;;23.98;10.70;;;103.30;2227.20;;;;;;4908110;29;20051;-84
2022/01/29 07:41:46;;;;;;;18.05;9.05;;;103.20;2227.20;;;;;;4907246;29;20040;-82
2022/01/29 07:44:12;;;;;;;25.38;10.23;;;103.20;2227.20;;;;;;4908174;29;20039;-83
2022/01/29 07:46:39;;;;;;;;;;;103.20;2227.20;;;;;;4913167;29;20033;-76
2022/01/29 07:49:04;;;;;;;19.63;7.45;;;102.90;2227.20;;;;;;4891218;29;20363;-80
2022/01/29 07:51:30;;;;;;;;;;;102.90;2227.20;;;;;;4909617;29;20035;-75
2022/01/29 07:53:56;;;;;;;50.50;20.60;;;103.00;2227.20;;;;;;4910386;29;19918;-87
2022/01/29 07:56:22;;;;;;;71.00;32.40;;;102.80;2227.20;;;;;;4907319;29;20021;-82
2022/01/29 07:58:49;;;;;;;34.92;17.67;;;103.00;2227.20;;;;;;4906514;29;20145;-82
2022/01/29 08:01:14;;;;;;;16.10;8.38;;;103.20;2227.20;;;;;;4889912;29;20035;-78
2022/01/29 08:03:41;;;;;;;20.67;10.52;;;103.20;2227.20;;;;;;4892093;29;20024;-77
2022/01/29 08:06:07;;;;;;;67.43;28.58;;;128.00;2252.80;;;;;;4907264;29;20036;-86
2022/01/29 08:08:33;;;;;;;;;;;128.00;2252.80;;;;;;4890721;29;20031;-74
2022/01/29 08:10:59;;;;;;;31.17;14.32;;;128.10;2252.80;;;;;;4907185;29;19922;-77
2022/01/29 08:13:25;;;;;;;;;;;128.10;2252.80;;;;;;4905462;29;20414;-83
2022/01/29 08:15:51;;;;;;;13.25;5.93;;;103.30;2227.20;;;;;;4908247;29;19938;-85
2022/01/29 08:18:16;;;;;;;;;;;102.90;2227.20;;;;;;4892455;29;20499;-75
2022/01/29 08:20:42;;;;;;;9.45;4.10;;;102.70;2227.20;;;;;;4906554;29;20282;-82
2022/01/29 08:23:09;;;;;;;;;;;102.80;2227.20;;;;;;4906645;29;20024;-81
2022/01/29 08:25:37;;;;;;;9.25;3.92;;;102.80;2227.20;;;;;;4893210;29;19926;-76
2022/01/29 08:28:03;;;;;;;12.93;5.00;;;102.80;2227.20;;;;;;4916143;29;20166;-80
2022/01/29 08:30:29;;;;;;;13.07;6.57;;;102.90;2227.20;;;;;;4892548;29;20036;-82
2022/01/29 08:32:54;;;;;;;12.23;5.65;;;102.70;2227.20;;;;;;4891028;29;20032;-82
2022/01/29 08:35:20;;;;;;;;;;;102.80;2227.20;;;;;;4906106;29;20040;-79
2022/01/29 08:37:46;;;;;;;15.43;7.22;;;102.50;2227.20;;;;;;4908348;29;19907;-77
2022/01/29 08:40:12;;;;;;;12.98;6.10;;;102.50;2227.20;;;;;;4891660;29;20044;-80
2022/01/29 08:42:39;;;;;;;15.35;6.63;;;102.60;2227.20;;;;;;4905551;29;20544;-82
2022/01/29 08:45:07;;;;;;;20.52;8.45;;;102.60;2227.20;;;;;;4881670;29;20068;-78
2022/01/29 08:47:32;;;;;;;18.20;7.97;;;102.80;2227.20;;;;;;4881779;29;20032;-76
2022/01/29 08:50:00;;;;;;;15.95;6.65;;;102.60;2227.20;;;;;;4881389;29;20107;-75
2022/01/29 08:52:27;;;;;;;12.63;7.35;;;102.60;2227.20;;;;;;4898465;29;20039;-84
2022/01/29 08:54:52;;;;;;;13.55;7.57;;;102.60;2227.20;;;;;;4881057;29;20477;-81
2022/01/29 08:57:18;;;;;;;22.00;8.27;;;102.60;2227.20;;;;;;4898298;29;20029;-83
2022/01/29 08:59:44;;;;;;;;;;;77.70;2227.20;;;;;;4898770;29;20033;-78
2022/01/29 09:02:09;;;;;;;26.40;8.23;;;102.40;2227.20;;;;;;4881073;29;19908;-75
2022/01/29 09:04:35;;;;;;;;;;;102.50;2227.20;;;;;;4898360;29;20485;-77
2022/01/29 09:07:01;;;;;;;18.40;7.47;;;102.80;2227.20;;;;;;4881146;29;20324;-75
2022/01/29 09:09:26;;;;;;;;;;;102.60;2227.20;;;;;;4907654;29;20033;-79
2022/01/29 09:11:54;;;;;;;16.27;7.00;;;102.60;2227.20;;;;;;4891901;29;20257;-86
2022/01/29 09:14:21;;;;;;;15.93;7.30;;;102.70;2227.20;;;;;;4908288;29;20048;-86
2022/01/29 09:16:47;;;;;;;17.17;7.38;;;103.10;2227.20;;;;;;4892645;29;20031;-79
2022/01/29 09:19:13;;;;;;;;;;;103.00;2227.20;;;;;;4917537;29;20028;-82
2022/01/29 09:21:39;;;;;;;13.05;6.13;;;103.20;2227.20;;;;;;4906961;29;19967;-83
2022/01/29 09:24:05;;;;;;;;;;;103.00;2227.20;;;;;;4890425;29;20036;-75
2022/01/29 09:26:31;;;;;;;15.43;6.65;;;103.00;2227.20;;;;;;4905187;29;19907;-75
2022/01/29 09:28:56;;;;;;;14.52;6.45;;;103.00;2227.20;;;;;;4916064;29;20115;-75
2022/01/29 09:31:22;;;;;;;;;;;103.00;2227.20;;;;;;4917159;29;20028;-79
2022/01/29 09:33:48;;;;;;;17.17;7.68;;;103.10;2227.20;;;;;;4916338;29;19907;-76
2022/01/29 09:36:14;;;;;;;;;;;103.10;2227.20;;;;;;4917061;29;20047;-75
2022/01/29 09:38:39;;;;;;;17.90;7.85;;;128.00;2252.80;;;;;;4916235;29;19919;-83
2022/01/29 09:41:05;;;;;;;;;;;128.00;2252.80;;;;;;4916805;29;20432;-79
2022/01/29 09:43:33;;;;;;;27.98;11.32;;;128.00;2252.80;;;;;;4916308;29;19961;-75
2022/01/29 09:45:59;;;;;;;22.42;9.63;;;128.40;2252.80;;;;;;4916608;29;20043;-75
2022/01/29 09:48:27;;;;;;;;;;;128.40;2252.80;;;;;;4916746;29;20029;-75
2022/01/29 09:50:53;;;;;;;23.08;10.82;;;128.50;2252.80;;;;;;4916292;29;19907;-81
2022/01/29 09:53:19;;;;;;;;;;;128.80;2252.80;;;;;;4917101;29;20040;-84
2022/01/29 09:55:46;;;;;;;18.00;7.93;;;128.90;2252.80;;;;;;4907413;29;19911;-83
2022/01/29 09:58:12;;;;;;;24.73;10.05;;;153.80;2252.80;;;;;;4905691;29;20024;-76
2022/01/29 10:00:38;;;;;;;;;;;154.00;2252.80;;;;;;4905872;29;20035;-80
2022/01/29 10:03:10;;;;;;;11.65;4.80;;;154.10;2252.80;;;;;;4892130;29;19918;-83
2022/01/29 10:05:38;;;;;;;12.07;5.53;;;154.10;2252.80;;;;;;4913146;29;20192;-84
2022/01/29 10:08:04;;;;;;;14.18;6.25;;;154.40;2252.80;;;;;;4889418;29;20053;-78
2022/01/29 10:10:40;;;;;;;14.88;6.55;;;179.30;2252.80;;;;;;4886840;29;20095;-80
2022/01/29 10:13:23;;;;;;;15.98;6.00;;;179.50;2252.80;;;;;;4905852;29;20024;-83
2022/01/29 10:15:51;;;;;;;11.40;5.85;;;179.70;2252.80;;;;;;4906651;29;20079;-76
2022/01/29 10:18:21;;;;;;;13.35;4.90;;;179.80;2252.80;;;;;;4890884;29;20393;-81
2022/01/29 10:20:46;;;;;;;9.48;4.75;;;179.90;2252.80;;;;;;4890857;29;20373;-76
2022/01/29 10:23:12;;;;;;;;;;;179.40;2252.80;;;;;;4909355;29;20052;-75
2022/01/29 10:25:42;;;;;;;13.70;6.25;;;179.20;2252.80;;;;;;4911011;29;19915;-76
2022/01/29 10:28:20;;;;;;;14.75;6.38;;;179.40;2252.80;;;;;;4910367;29;20020;-81
2022/01/29 10:30:49;;;;;;;19.85;8.32;;;179.50;2252.80;;;;;;4896233;29;20032;-76
2022/01/29 10:33:22;;;;;;;21.08;11.82;;;179.30;2252.80;;;;;;4906825;29;20021;-75
2022/01/29 10:35:59;;;;;;;15.65;8.05;;;179.40;2252.80;;;;;;4900445;29;20059;-75
2022/01/29 10:38:26;;;;;;;;;;;179.60;2252.80;;;;;;4902830;29;20063;-75
2022/01/29 10:41:11;;;;;;;8.02;3.78;;;179.50;2252.80;;;;;;4902499;29;19918;-83
2022/01/29 10:43:55;;;;;;;13.23;5.43;;;179.40;2252.80;;;;;;4918061;29;20111;-79
2022/01/29 10:46:26;;;;;;;18.52;7.55;;;179.40;2252.80;;;;;;4919422;29;20032;-83
2022/01/29 10:48:51;;;;;;;28.33;10.70;;;154.50;2252.80;;;;;;4902543;29;20084;-75
2022/01/29 10:51:17;;;;;;;;;;;179.40;2252.80;;;;;;4903194;29;20056;-87
2022/01/29 10:53:43;;;;;;;27.48;8.15;;;154.40;2252.80;;;;;;4919509;29;19911;-83
2022/01/29 10:56:09;;;;;;;17.85;6.63;;;154.50;2252.80;;;;;;4902477;29;20036;-81
2022/01/29 10:58:42;;;;;;;;;;;154.50;2252.80;;;;;;4902703;29;20040;-75
2022/01/29 11:01:16;;;;;;;12.80;6.65;;;179.40;2252.80;;;;;;4918348;29;19941;-77
2022/01/29 11:03:43;;;;;;;19.23;8.15;;;179.90;2252.80;;;;;;4918282;29;20028;-82
2022/01/29 11:06:19;;;;;;;20.70;7.63;;;205.10;2252.80;;;;;;4902512;29;20051;-85
2022/01/29 11:08:45;;;;;;;9.82;4.88;;;205.20;2252.80;;;;;;4902155;29;20040;-75
2022/01/29 11:11:11;;;;;;;;;;;205.50;2227.20;;;;;;4919168;29;20034;-75
2022/01/29 11:13:37;;;;;;;30.60;13.15;;;205.70;2099.20;;;;;;4919337;29;19990;-80
2022/01/29 11:16:04;;;;;;;19.50;7.82;;;230.70;2022.40;;;;;;4902041;29;20028;-75
2022/01/29 11:18:33;;;;;;;35.38;9.82;;;230.50;2073.60;;;;;;4919422;29;20024;-85
2022/01/29 11:21:00;;;;;;;15.25;7.90;;;205.40;2150.40;;;;;;4894332;29;20035;-75
2022/01/29 11:23:27;;;;;;;25.85;12.90;;;205.50;2124.80;;;;;;4906454;29;20027;-76
2022/01/29 11:25:55;;;;;;;22.40;9.20;;;205.70;2124.80;;;;;;4907613;29;20075;-78
2022/01/29 11:28:23;;;;;;;14.20;6.95;;;205.70;2124.80;;;;;;4905680;29;20028;-75
2022/01/29 11:31:15;;;;;;;15.07;6.30;;;230.50;2048.00;;;;;;4882965;29;20186;-76
2022/01/29 11:34:19;;;;;;;11.65;6.20;;;230.90;2022.40;;;;;;4904951;29;20041;-74
2022/01/29 11:36:47;;;;;;;14.98;7.93;;;231.10;1971.20;;;;;;4838129;29;20033;-77
2022/01/29 11:39:25;;;;;;;22.17;9.88;;;231.20;1971.20;;;;;;4841355;29;20053;-76
2022/01/29 11:42:15;;;;;;;17.02;8.00;;;231.20;1996.80;;;;;;4841712;29;20041;-76
2022/01/29 11:44:42;;;;;;;14.63;8.93;;;231.00;2022.40;;;;;;4825019;29;20062;-77
2022/01/29 11:47:23;;;;;;;13.50;6.85;;;231.30;1971.20;;;;;;4833818;29;20065;-79
2022/01/29 11:49:50;;;;;;;14.88;6.88;;;256.00;1920.00;;;;;;4838771;29;20070;-78
2022/01/29 11:52:23;;;;;;;10.40;5.75;;;231.20;1971.20;;;;;;4841098;29;20094;-75
2022/01/29 11:55:06;;;;;;;10.02;5.07;;;231.30;1920.00;;;;;;4841611;29;20034;-74
2022/01/29 11:57:32;;;;;;;10.80;5.50;;;231.30;1894.40;;;;;;4841202;29;20042;-78
2022/01/29 12:00:16;;;;;;;;;;;231.30;1920.00;;;;;;4842313;29;20045;-77
2022/01/29 12:02:44;;;;;;;10.98;5.07;;;256.00;1920.00;;;;;;4841998;29;19909;-79
2022/01/29 12:05:11;;;;;;;13.05;5.70;;;256.20;1868.80;;;;;;4841417;29;20053;-80
2022/01/29 12:08:14;;;;;;;10.02;5.30;;;256.20;1843.20;;;;;;4830833;29;20037;-82
2022/01/29 12:10:42;;;;;;;17.55;8.60;;;256.20;1843.20;;;;;;4879965;29;20131;-82
2022/01/29 12:13:14;;;;;;;13.73;6.25;;;256.20;1920.00;;;;;;4900761;29;20024;-81
2022/01/29 12:15:40;;;;;;;14.35;6.28;;;256.20;1894.40;;;;;;4901018;29;20468;-75
2022/01/29 12:18:25;;;;;;;;;;;256.30;1843.20;;;;;;4917892;29;20028;-76
2022/01/29 12:20:51;;;;;;;12.18;6.28;;;256.40;1817.60;;;;;;4917505;29;19995;-75
2022/01/29 12:23:17;;;;;;;;;;;256.40;1817.60;;;;;;4917085;29;20200;-75
2022/01/29 12:25:50;;;;;;;11.98;5.50;;;256.40;1817.60;;;;;;4917652;29;19915;-75
2022/01/29 12:28:16;;;;;;;12.63;6.22;;;256.20;1843.20;;;;;;4900953;29;20028;-75
2022/01/29 12:30:44;;;;;;;;;;;256.10;1843.20;;;;;;4917861;29;20465;-82
2022/01/29 12:33:12;;;;;;;8.73;4.50;;;256.20;1817.60;;;;;;4916369;29;19909;-76
2022/01/29 12:35:42;;;;;;;9.50;5.15;;;256.20;1817.60;;;;;;4917538;29;20063;-83
2022/01/29 12:38:43;;;;;;;7.38;3.70;;;256.40;1792.00;;;;;;4900004;29;20044;-85